SWR283 FAOR-LSZH
Flight info
| Callsign | SWR283 |
|---|---|
| Flight time | N/A |
| Altitude | 32000 |
| Route | VASUR3A/03L VASUR UZ21 ITROL UQ25 RUDAS UT941 IBVAN/N0492F340 UT941 IBRIT UM998 VUE/N0483F360 UM998 ONOGO/N0476F380 UM998 TOLGA/N0465F400 UM998 CSO UM2 CIRTA DCT ETOIL DCT OMEDA DCT TORTU DCT ERTEV DCT CANNE Z651 KELIP |
| Aircraft | A343/H-SDE2E3FGHIJ4J5M1RWXY/LB1D1 |
Departure
| Time | 2026-04-30 18:04 |
|---|---|
| Airport | O.R. Tambo International Airport (FAOR) |
Arrival
| Time | N/A |
|---|---|
| Airport | Zürich Airport (LSZH) |
| Time | Latitude | Longitude | Altitude | Speed | Heading |
|---|---|---|---|---|---|
| 2026-04-30 17:39 | -26.13164 | 28.23330 | 5554 ft | 0 kts | 276° |
| 2026-04-30 17:53 | -26.13165 | 28.23361 | 5552 ft | 4 kts | 261° |
| 2026-04-30 17:54 | -26.13117 | 28.23417 | 5551 ft | 0 kts | 188° |
| 2026-04-30 17:58 | -26.13155 | 28.23411 | 5551 ft | 8 kts | 187° |
| 2026-04-30 17:59 | -26.13488 | 28.23365 | 5555 ft | 4 kts | 187° |
| 2026-04-30 18:00 | -26.13741 | 28.23338 | 5553 ft | 18 kts | 185° |
| 2026-04-30 18:00 | -26.14137 | 28.23228 | 5559 ft | 17 kts | 195° |
| 2026-04-30 18:01 | -26.14390 | 28.23236 | 5566 ft | 20 kts | 166° |
| 2026-04-30 18:02 | -26.14618 | 28.23400 | 5571 ft | 11 kts | 99° |
| 2026-04-30 18:02 | -26.14437 | 28.23501 | 5569 ft | 45 kts | 16° |
| 2026-04-30 18:03 | -26.12322 | 28.24151 | 5543 ft | 157 kts | 15° |
| 2026-04-30 18:04 | -26.08802 | 28.25203 | 6258 ft | 183 kts | 13° |
| 2026-04-30 18:05 | -26.05208 | 28.22219 | 7076 ft | 222 kts | 284° |
| 2026-04-30 18:06 | -26.01955 | 28.15536 | 8137 ft | 279 kts | 330° |
| 2026-04-30 18:07 | -25.94855 | 28.11448 | 10246 ft | 297 kts | 332° |
| 2026-04-30 18:08 | -25.88994 | 28.08079 | 11018 ft | 335 kts | 332° |
| 2026-04-30 18:09 | -25.80154 | 28.02998 | 12063 ft | 377 kts | 332° |
| 2026-04-30 18:10 | -25.70635 | 27.97536 | 13786 ft | 391 kts | 332° |
| 2026-04-30 18:11 | -25.60860 | 27.91936 | 15597 ft | 402 kts | 332° |
| 2026-04-30 18:11 | -25.53702 | 27.87171 | 16932 ft | 409 kts | 323° |
| 2026-04-30 18:12 | -25.46949 | 27.81243 | 18220 ft | 417 kts | 321° |
| 2026-04-30 18:13 | -25.42409 | 27.77210 | 19025 ft | 422 kts | 321° |
| 2026-04-30 18:13 | -25.36189 | 27.71769 | 20087 ft | 429 kts | 321° |
| 2026-04-30 18:14 | -25.30697 | 27.66996 | 20960 ft | 434 kts | 321° |
| 2026-04-30 18:15 | -25.24324 | 27.61462 | 21880 ft | 441 kts | 321° |
| 2026-04-30 18:15 | -25.17035 | 27.55139 | 22885 ft | 447 kts | 321° |
| 2026-04-30 18:16 | -25.12109 | 27.50871 | 23520 ft | 452 kts | 321° |
| 2026-04-30 18:16 | -25.07138 | 27.46569 | 24119 ft | 457 kts | 321° |
| 2026-04-30 18:17 | -25.04628 | 27.44399 | 24416 ft | 459 kts | 321° |
| 2026-04-30 18:17 | -25.02118 | 27.42209 | 24708 ft | 461 kts | 320° |
| 2026-04-30 18:17 | -24.97290 | 27.37523 | 25285 ft | 465 kts | 317° |
| 2026-04-30 18:18 | -24.94908 | 27.35105 | 25568 ft | 466 kts | 317° |
| 2026-04-30 18:18 | -24.92512 | 27.32677 | 25845 ft | 468 kts | 317° |
| 2026-04-30 18:18 | -24.90101 | 27.30256 | 26098 ft | 470 kts | 317° |
| 2026-04-30 18:18 | -24.87701 | 27.27869 | 26354 ft | 472 kts | 317° |
| 2026-04-30 18:19 | -24.85257 | 27.25455 | 26619 ft | 474 kts | 318° |
| 2026-04-30 18:19 | -24.82796 | 27.23035 | 26872 ft | 475 kts | 318° |
| 2026-04-30 18:19 | -24.80322 | 27.20609 | 27079 ft | 477 kts | 318° |
| 2026-04-30 18:19 | -24.77801 | 27.18140 | 27316 ft | 479 kts | 318° |
| 2026-04-30 18:20 | -24.75341 | 27.15731 | 27531 ft | 481 kts | 318° |
| 2026-04-30 18:20 | -24.72835 | 27.13278 | 27724 ft | 483 kts | 318° |
| 2026-04-30 18:20 | -24.70320 | 27.10816 | 27958 ft | 485 kts | 318° |
| 2026-04-30 18:20 | -24.67799 | 27.08349 | 28185 ft | 486 kts | 318° |
| 2026-04-30 18:21 | -24.65267 | 27.05873 | 28397 ft | 487 kts | 318° |
| 2026-04-30 18:21 | -24.62733 | 27.03396 | 28608 ft | 489 kts | 318° |
| 2026-04-30 18:21 | -24.60187 | 27.00909 | 28826 ft | 489 kts | 318° |
| 2026-04-30 18:21 | -24.57644 | 26.98426 | 29129 ft | 488 kts | 318° |
| 2026-04-30 18:22 | -24.55110 | 26.95953 | 29421 ft | 488 kts | 318° |
| 2026-04-30 18:22 | -24.50036 | 26.91007 | 29954 ft | 486 kts | 318° |
| 2026-04-30 18:22 | -24.47509 | 26.88545 | 30213 ft | 486 kts | 318° |
| 2026-04-30 18:23 | -24.44984 | 26.86086 | 30477 ft | 485 kts | 318° |
| 2026-04-30 18:23 | -24.42459 | 26.83629 | 30720 ft | 485 kts | 318° |
| 2026-04-30 18:23 | -24.39935 | 26.81174 | 30963 ft | 484 kts | 318° |
| 2026-04-30 18:23 | -24.37414 | 26.78723 | 31195 ft | 484 kts | 318° |
| 2026-04-30 18:24 | -24.32359 | 26.73856 | 31628 ft | 483 kts | 321° |
| 2026-04-30 18:24 | -24.29705 | 26.71605 | 31868 ft | 482 kts | 322° |
| 2026-04-30 18:24 | -24.27019 | 26.69387 | 31983 ft | 484 kts | 323° |
| 2026-04-30 18:25 | -24.24315 | 26.67186 | 32002 ft | 485 kts | 323° |
| 2026-04-30 18:25 | -24.16176 | 26.60625 | 32000 ft | 484 kts | 323° |
| 2026-04-30 18:26 | -24.08039 | 26.54068 | 32000 ft | 484 kts | 323° |
| 2026-04-30 18:27 | -23.99911 | 26.47517 | 32000 ft | 484 kts | 323° |
| 2026-04-30 18:28 | -23.91782 | 26.40974 | 32000 ft | 484 kts | 323° |
| 2026-04-30 18:28 | -23.83645 | 26.34439 | 32000 ft | 484 kts | 323° |
| 2026-04-30 18:29 | -23.72751 | 26.25745 | 32000 ft | 485 kts | 323° |
| 2026-04-30 18:30 | -23.61513 | 26.17718 | 32000 ft | 485 kts | 328° |
| 2026-04-30 18:31 | -23.52907 | 26.11829 | 32001 ft | 485 kts | 325° |
| 2026-04-30 18:32 | -23.44904 | 26.05190 | 32000 ft | 484 kts | 321° |
| 2026-04-30 18:33 | -23.36914 | 25.98441 | 32000 ft | 485 kts | 322° |
| 2026-04-30 18:33 | -23.28839 | 25.91801 | 32000 ft | 485 kts | 322° |
| 2026-04-30 18:34 | -23.20757 | 25.85186 | 32000 ft | 485 kts | 322° |
| 2026-04-30 18:35 | -23.15362 | 25.80772 | 32000 ft | 485 kts | 322° |
| 2026-04-30 18:35 | -23.09965 | 25.76360 | 32000 ft | 486 kts | 322° |
| 2026-04-30 18:36 | -23.01869 | 25.69748 | 32000 ft | 485 kts | 323° |
| 2026-04-30 18:37 | -22.93769 | 25.63144 | 32000 ft | 485 kts | 323° |
| 2026-04-30 18:37 | -22.88317 | 25.58825 | 32000 ft | 485 kts | 324° |
| 2026-04-30 18:38 | -22.82848 | 25.54616 | 32000 ft | 485 kts | 324° |
| 2026-04-30 18:38 | -22.77349 | 25.50377 | 32000 ft | 485 kts | 324° |
| 2026-04-30 18:39 | -22.71857 | 25.46124 | 32000 ft | 485 kts | 324° |
| 2026-04-30 18:39 | -22.66369 | 25.41868 | 32000 ft | 485 kts | 324° |
| 2026-04-30 18:40 | -22.60875 | 25.37612 | 32000 ft | 485 kts | 324° |
| 2026-04-30 18:40 | -22.55388 | 25.33366 | 32000 ft | 485 kts | 324° |
| 2026-04-30 18:41 | -22.49892 | 25.29118 | 32000 ft | 485 kts | 324° |
| 2026-04-30 18:41 | -22.44403 | 25.24880 | 32000 ft | 485 kts | 324° |
| 2026-04-30 18:42 | -22.38904 | 25.20639 | 32000 ft | 485 kts | 324° |
| 2026-04-30 18:42 | -22.30665 | 25.14291 | 32000 ft | 485 kts | 324° |
| 2026-04-30 18:45 | -22.00465 | 24.91105 | 32000 ft | 485 kts | 324° |
| 2026-04-30 18:46 | -21.94929 | 24.86868 | 32000 ft | 485 kts | 324° |
| 2026-04-30 18:46 | -21.89465 | 24.82692 | 32000 ft | 485 kts | 324° |
| 2026-04-30 18:47 | -21.83935 | 24.78454 | 32000 ft | 485 kts | 324° |
| 2026-04-30 18:47 | -21.78484 | 24.74269 | 32000 ft | 485 kts | 324° |
| 2026-04-30 18:48 | -21.72992 | 24.70060 | 32000 ft | 485 kts | 324° |
| 2026-04-30 18:48 | -21.67494 | 24.65854 | 32000 ft | 485 kts | 324° |
| 2026-04-30 18:49 | -21.61998 | 24.61654 | 32000 ft | 485 kts | 324° |
| 2026-04-30 18:49 | -21.56500 | 24.57457 | 32000 ft | 484 kts | 324° |
| 2026-04-30 18:50 | -21.50998 | 24.53261 | 32000 ft | 484 kts | 324° |
| 2026-04-30 18:50 | -21.45531 | 24.49096 | 32000 ft | 484 kts | 324° |
| 2026-04-30 18:51 | -21.40023 | 24.44903 | 32000 ft | 484 kts | 324° |
| 2026-04-30 18:51 | -21.34540 | 24.40733 | 32000 ft | 484 kts | 324° |
| 2026-04-30 18:52 | -21.29021 | 24.36540 | 32000 ft | 484 kts | 324° |
| 2026-04-30 18:52 | -21.23558 | 24.32393 | 32000 ft | 484 kts | 324° |
| 2026-04-30 18:53 | -21.18072 | 24.28232 | 32000 ft | 484 kts | 324° |
| 2026-04-30 18:53 | -21.12580 | 24.24070 | 32000 ft | 484 kts | 324° |
| 2026-04-30 18:54 | -21.07070 | 24.19900 | 32000 ft | 484 kts | 324° |
| 2026-04-30 18:54 | -21.01557 | 24.15730 | 32000 ft | 484 kts | 324° |
| 2026-04-30 18:55 | -20.96056 | 24.11573 | 32000 ft | 484 kts | 324° |
| 2026-04-30 18:55 | -20.87810 | 24.05350 | 32000 ft | 484 kts | 324° |
| 2026-04-30 18:56 | -20.79534 | 23.99112 | 32000 ft | 484 kts | 324° |
| 2026-04-30 18:57 | -20.71274 | 23.92895 | 32000 ft | 484 kts | 324° |
| 2026-04-30 18:57 | -20.65764 | 23.88752 | 32000 ft | 484 kts | 324° |
| 2026-04-30 18:58 | -20.57490 | 23.82539 | 32000 ft | 484 kts | 324° |
| 2026-04-30 18:59 | -20.49267 | 23.76378 | 32464 ft | 482 kts | 324° |
| 2026-04-30 19:00 | -20.41033 | 23.70206 | 33071 ft | 481 kts | 324° |
| 2026-04-30 19:00 | -20.38279 | 23.68143 | 33269 ft | 480 kts | 324° |
| 2026-04-30 19:00 | -20.32859 | 23.64087 | 33619 ft | 480 kts | 324° |
| 2026-04-30 19:01 | -20.27396 | 23.60004 | 33962 ft | 479 kts | 324° |
| 2026-04-30 19:02 | -20.19159 | 23.53855 | 34000 ft | 484 kts | 324° |
| 2026-04-30 19:03 | -20.09089 | 23.46349 | 34000 ft | 481 kts | 324° |
| 2026-04-30 19:04 | -19.97941 | 23.38486 | 34003 ft | 481 kts | 335° |
| 2026-04-30 19:05 | -19.85648 | 23.32832 | 33998 ft | 481 kts | 337° |
| 2026-04-30 19:06 | -19.73297 | 23.27347 | 34001 ft | 481 kts | 337° |
| 2026-04-30 19:06 | -19.64038 | 23.23213 | 34000 ft | 481 kts | 337° |
| 2026-04-30 19:07 | -19.54796 | 23.19090 | 33999 ft | 481 kts | 337° |
| 2026-04-30 19:08 | -19.42421 | 23.13578 | 34001 ft | 481 kts | 337° |
| 2026-04-30 19:09 | -19.33157 | 23.09458 | 33999 ft | 481 kts | 337° |
| 2026-04-30 19:09 | -19.26982 | 23.06715 | 34001 ft | 481 kts | 337° |
| 2026-04-30 19:10 | -19.14631 | 23.01235 | 33999 ft | 481 kts | 337° |
| 2026-04-30 19:11 | -19.05369 | 22.97131 | 34001 ft | 481 kts | 337° |
| 2026-04-30 19:12 | -18.99218 | 22.94441 | 34001 ft | 481 kts | 337° |
| 2026-04-30 19:12 | -18.92968 | 22.91761 | 34000 ft | 481 kts | 338° |
| 2026-04-30 19:13 | -18.80605 | 22.86455 | 34000 ft | 481 kts | 337° |
| 2026-04-30 19:14 | -18.74400 | 22.83787 | 33999 ft | 481 kts | 337° |
| 2026-04-30 19:14 | -18.68193 | 22.81120 | 34000 ft | 481 kts | 337° |
| 2026-04-30 19:15 | -18.62002 | 22.78426 | 34000 ft | 481 kts | 336° |
| 2026-04-30 19:15 | -18.52758 | 22.74279 | 33999 ft | 481 kts | 336° |
| 2026-04-30 19:16 | -18.46592 | 22.71522 | 34000 ft | 481 kts | 336° |
| 2026-04-30 19:17 | -18.37330 | 22.67403 | 33999 ft | 481 kts | 336° |
| 2026-04-30 19:17 | -18.28071 | 22.63294 | 34001 ft | 481 kts | 336° |
| 2026-04-30 19:18 | -18.18811 | 22.59187 | 34000 ft | 481 kts | 337° |
| 2026-04-30 19:19 | -18.12639 | 22.56453 | 34000 ft | 482 kts | 337° |
| 2026-04-30 19:19 | -18.03374 | 22.52352 | 34000 ft | 482 kts | 337° |
| 2026-04-30 19:20 | -17.97200 | 22.49622 | 34001 ft | 482 kts | 337° |
| 2026-04-30 19:21 | -17.87967 | 22.45455 | 34001 ft | 482 kts | 335° |
| 2026-04-30 19:22 | -17.75674 | 22.39830 | 34000 ft | 482 kts | 338° |
| 2026-04-30 19:23 | -17.57048 | 22.31895 | 34001 ft | 482 kts | 337° |
| 2026-04-30 19:24 | -17.47787 | 22.27911 | 34000 ft | 482 kts | 337° |
| 2026-04-30 19:25 | -17.32281 | 22.21254 | 34000 ft | 482 kts | 337° |
| 2026-04-30 19:26 | -17.19880 | 22.15940 | 34000 ft | 482 kts | 337° |
| 2026-04-30 19:27 | -17.10576 | 22.11958 | 34000 ft | 482 kts | 337° |
| 2026-04-30 19:28 | -17.01269 | 22.07979 | 34001 ft | 482 kts | 337° |
| 2026-04-30 19:29 | -16.88895 | 22.02695 | 34000 ft | 482 kts | 337° |
| 2026-04-30 19:30 | -16.76480 | 21.97401 | 34001 ft | 482 kts | 337° |
| 2026-04-30 19:31 | -16.64064 | 21.92115 | 33999 ft | 482 kts | 337° |
| 2026-04-30 19:31 | -16.54780 | 21.88167 | 34000 ft | 482 kts | 337° |
| 2026-04-30 19:32 | -16.48528 | 21.85510 | 34001 ft | 482 kts | 337° |
| 2026-04-30 19:32 | -16.42342 | 21.82884 | 34001 ft | 482 kts | 337° |
| 2026-04-30 19:33 | -16.36168 | 21.80264 | 34000 ft | 482 kts | 337° |
| 2026-04-30 19:33 | -16.29957 | 21.77630 | 34000 ft | 482 kts | 337° |
| 2026-04-30 19:34 | -16.23754 | 21.75002 | 34000 ft | 482 kts | 338° |
| 2026-04-30 19:35 | -16.14424 | 21.71052 | 34000 ft | 482 kts | 338° |
| 2026-04-30 19:35 | -16.08209 | 21.68423 | 34000 ft | 482 kts | 338° |
| 2026-04-30 19:36 | -16.02002 | 21.65799 | 34000 ft | 482 kts | 338° |
| 2026-04-30 19:36 | -15.92720 | 21.61879 | 33998 ft | 482 kts | 338° |
| 2026-04-30 19:37 | -15.86456 | 21.59235 | 34000 ft | 482 kts | 338° |
| 2026-04-30 19:37 | -15.80269 | 21.56626 | 34001 ft | 482 kts | 338° |
| 2026-04-30 19:38 | -15.74087 | 21.54021 | 33999 ft | 482 kts | 338° |
| 2026-04-30 19:38 | -15.67843 | 21.51391 | 34000 ft | 482 kts | 338° |
| 2026-04-30 19:39 | -15.61664 | 21.48790 | 34001 ft | 482 kts | 338° |
| 2026-04-30 19:39 | -15.55385 | 21.46149 | 34000 ft | 482 kts | 338° |
| 2026-04-30 19:40 | -15.49223 | 21.43559 | 33999 ft | 482 kts | 338° |
| 2026-04-30 19:40 | -15.43006 | 21.40948 | 34001 ft | 482 kts | 338° |
| 2026-04-30 19:41 | -15.36808 | 21.38346 | 34001 ft | 482 kts | 338° |
| 2026-04-30 19:41 | -15.30625 | 21.35752 | 34000 ft | 482 kts | 338° |
| 2026-04-30 19:42 | -15.24367 | 21.33128 | 34000 ft | 482 kts | 338° |
| 2026-04-30 19:42 | -15.18143 | 21.30520 | 34000 ft | 482 kts | 338° |
| 2026-04-30 19:43 | -15.11922 | 21.27915 | 34000 ft | 482 kts | 338° |
| 2026-04-30 19:44 | -15.02586 | 21.24009 | 34001 ft | 483 kts | 338° |
| 2026-04-30 19:44 | -14.96356 | 21.21404 | 34000 ft | 483 kts | 338° |
| 2026-04-30 19:45 | -14.90151 | 21.18812 | 34000 ft | 483 kts | 338° |
| 2026-04-30 19:45 | -14.83891 | 21.16199 | 34000 ft | 483 kts | 338° |
| 2026-04-30 19:46 | -14.77670 | 21.13603 | 34000 ft | 483 kts | 338° |
| 2026-04-30 19:46 | -14.71473 | 21.11019 | 34001 ft | 483 kts | 338° |
| 2026-04-30 19:47 | -14.65245 | 21.08423 | 34000 ft | 483 kts | 338° |
| 2026-04-30 19:47 | -14.59028 | 21.05833 | 34000 ft | 483 kts | 338° |
| 2026-04-30 19:48 | -14.52768 | 21.03228 | 34000 ft | 483 kts | 338° |
| 2026-04-30 19:48 | -14.47583 | 21.01071 | 34000 ft | 483 kts | 338° |
| 2026-04-30 19:49 | -14.40347 | 20.98062 | 33997 ft | 483 kts | 338° |
| 2026-04-30 19:49 | -14.30972 | 20.94168 | 34001 ft | 483 kts | 338° |
| 2026-04-30 19:50 | -14.25764 | 20.92005 | 34000 ft | 483 kts | 338° |
| 2026-04-30 19:50 | -14.19539 | 20.89423 | 34000 ft | 483 kts | 338° |
| 2026-04-30 19:51 | -14.13293 | 20.86833 | 34001 ft | 483 kts | 338° |
| 2026-04-30 19:51 | -14.07052 | 20.84254 | 34001 ft | 483 kts | 338° |
| 2026-04-30 19:52 | -14.00825 | 20.81680 | 34000 ft | 483 kts | 338° |
| 2026-04-30 19:52 | -13.94586 | 20.79098 | 34000 ft | 483 kts | 338° |
| 2026-04-30 19:53 | -13.88343 | 20.76516 | 34000 ft | 483 kts | 338° |
| 2026-04-30 19:53 | -13.82108 | 20.73937 | 33999 ft | 483 kts | 338° |
| 2026-04-30 19:54 | -13.75868 | 20.71358 | 34001 ft | 483 kts | 338° |
| 2026-04-30 19:54 | -13.69625 | 20.68781 | 34001 ft | 484 kts | 338° |
| 2026-04-30 19:55 | -13.63377 | 20.66202 | 34000 ft | 483 kts | 338° |
| 2026-04-30 19:55 | -13.57144 | 20.63631 | 34001 ft | 483 kts | 338° |
| 2026-04-30 19:56 | -13.50892 | 20.61053 | 34001 ft | 484 kts | 338° |
| 2026-04-30 19:56 | -13.44656 | 20.58484 | 34000 ft | 484 kts | 338° |
| 2026-04-30 19:57 | -13.38474 | 20.55938 | 34001 ft | 484 kts | 338° |
| 2026-04-30 19:57 | -13.32188 | 20.53350 | 33999 ft | 483 kts | 338° |
| 2026-04-30 19:58 | -13.25968 | 20.50792 | 34000 ft | 483 kts | 338° |
| 2026-04-30 19:58 | -13.19751 | 20.48236 | 34000 ft | 484 kts | 338° |
| 2026-04-30 19:59 | -13.13463 | 20.45652 | 33999 ft | 484 kts | 338° |
| 2026-04-30 20:00 | -13.04089 | 20.41804 | 34000 ft | 484 kts | 338° |
| 2026-04-30 20:00 | -12.97834 | 20.39237 | 34000 ft | 484 kts | 338° |
| 2026-04-30 20:01 | -12.88462 | 20.35394 | 33999 ft | 484 kts | 338° |
| 2026-04-30 20:01 | -12.82213 | 20.32833 | 34001 ft | 484 kts | 338° |
| 2026-04-30 20:02 | -12.72841 | 20.28996 | 34001 ft | 483 kts | 338° |
| 2026-04-30 20:03 | -12.63463 | 20.25159 | 34001 ft | 483 kts | 338° |
| 2026-04-30 20:03 | -12.57228 | 20.22609 | 34000 ft | 483 kts | 338° |
| 2026-04-30 20:04 | -12.50981 | 20.20056 | 34000 ft | 483 kts | 338° |
| 2026-04-30 20:05 | -12.41604 | 20.16225 | 34001 ft | 484 kts | 338° |
| 2026-04-30 20:05 | -12.32231 | 20.12399 | 33999 ft | 484 kts | 338° |
| 2026-04-30 20:06 | -12.25982 | 20.09844 | 34000 ft | 484 kts | 338° |
| 2026-04-30 20:06 | -12.19761 | 20.07304 | 34001 ft | 484 kts | 338° |
| 2026-04-30 20:07 | -12.13459 | 20.04735 | 34000 ft | 484 kts | 338° |
| 2026-04-30 20:08 | -12.04276 | 20.00997 | 34001 ft | 484 kts | 338° |
| 2026-04-30 20:08 | -11.98017 | 19.98450 | 34000 ft | 484 kts | 338° |
| 2026-04-30 20:09 | -11.91763 | 19.95906 | 34000 ft | 484 kts | 338° |
| 2026-04-30 20:09 | -11.82377 | 19.92091 | 34000 ft | 484 kts | 338° |
| 2026-04-30 20:10 | -11.72868 | 19.88645 | 34235 ft | 483 kts | 343° |
| 2026-04-30 20:10 | -11.69649 | 19.87658 | 34418 ft | 482 kts | 343° |
| 2026-04-30 20:11 | -11.63240 | 19.85705 | 34772 ft | 480 kts | 343° |
| 2026-04-30 20:11 | -11.60033 | 19.84733 | 34933 ft | 480 kts | 343° |
| 2026-04-30 20:11 | -11.56833 | 19.83765 | 35077 ft | 480 kts | 343° |
| 2026-04-30 20:12 | -11.50454 | 19.81840 | 35388 ft | 479 kts | 343° |
| 2026-04-30 20:12 | -11.47314 | 19.80892 | 35534 ft | 479 kts | 343° |
| 2026-04-30 20:12 | -11.44040 | 19.79904 | 35678 ft | 479 kts | 343° |
| 2026-04-30 20:13 | -11.40846 | 19.78941 | 35808 ft | 479 kts | 343° |
| 2026-04-30 20:13 | -11.37657 | 19.77979 | 35938 ft | 478 kts | 343° |
| 2026-04-30 20:13 | -11.34458 | 19.77014 | 36002 ft | 480 kts | 343° |
| 2026-04-30 20:14 | -11.28033 | 19.75077 | 35999 ft | 481 kts | 343° |
| 2026-04-30 20:14 | -11.22867 | 19.73520 | 36002 ft | 480 kts | 343° |
| 2026-04-30 20:15 | -11.20386 | 19.72773 | 36002 ft | 480 kts | 343° |
| 2026-04-30 20:15 | -11.14459 | 19.70987 | 35997 ft | 480 kts | 343° |
| 2026-04-30 20:16 | -11.10704 | 19.69857 | 36002 ft | 480 kts | 343° |
| 2026-04-30 20:16 | -11.05698 | 19.68350 | 36001 ft | 480 kts | 343° |
| 2026-04-30 20:17 | -10.99280 | 19.66419 | 36002 ft | 480 kts | 343° |
| 2026-04-30 20:17 | -10.92857 | 19.64487 | 35996 ft | 480 kts | 343° |
| 2026-04-30 20:18 | -10.86450 | 19.62561 | 36001 ft | 480 kts | 343° |
| 2026-04-30 20:18 | -10.80096 | 19.60652 | 36001 ft | 480 kts | 343° |
| 2026-04-30 20:19 | -10.76085 | 19.59449 | 36000 ft | 480 kts | 343° |
| 2026-04-30 20:19 | -10.69684 | 19.57536 | 36002 ft | 480 kts | 343° |
| 2026-04-30 20:20 | -10.63265 | 19.55614 | 35998 ft | 480 kts | 343° |
| 2026-04-30 20:20 | -10.56856 | 19.53692 | 36001 ft | 480 kts | 343° |
| 2026-04-30 20:21 | -10.50453 | 19.51772 | 35999 ft | 480 kts | 343° |
| 2026-04-30 20:21 | -10.44043 | 19.49850 | 36002 ft | 480 kts | 343° |
| 2026-04-30 20:22 | -10.37626 | 19.47928 | 35999 ft | 480 kts | 343° |
| 2026-04-30 20:22 | -10.31226 | 19.46011 | 36002 ft | 480 kts | 343° |
| 2026-04-30 20:23 | -10.24863 | 19.44106 | 36001 ft | 480 kts | 343° |
| 2026-04-30 20:23 | -10.18417 | 19.42177 | 36002 ft | 480 kts | 343° |
| 2026-04-30 20:24 | -10.12013 | 19.40262 | 36000 ft | 480 kts | 343° |
| 2026-04-30 20:24 | -10.05597 | 19.38344 | 35998 ft | 480 kts | 343° |
| 2026-04-30 20:25 | -9.96032 | 19.35485 | 36002 ft | 480 kts | 343° |
| 2026-04-30 20:26 | -9.86434 | 19.32619 | 36001 ft | 479 kts | 343° |
| 2026-04-30 20:26 | -9.76802 | 19.29744 | 36000 ft | 479 kts | 343° |
| 2026-04-30 20:27 | -9.64013 | 19.25927 | 36001 ft | 479 kts | 343° |
| 2026-04-30 20:28 | -9.51301 | 19.22104 | 36002 ft | 478 kts | 343° |
| 2026-04-30 20:30 | -9.35329 | 19.17291 | 35998 ft | 478 kts | 343° |
| 2026-04-30 20:31 | -9.16188 | 19.11536 | 35998 ft | 478 kts | 343° |
| 2026-04-30 20:32 | -9.00235 | 19.06743 | 36001 ft | 479 kts | 343° |
| 2026-04-30 20:33 | -8.90654 | 19.03869 | 36002 ft | 479 kts | 343° |
| 2026-04-30 20:34 | -8.81070 | 19.00995 | 36002 ft | 479 kts | 343° |
| 2026-04-30 20:35 | -8.71480 | 18.98121 | 36000 ft | 479 kts | 343° |
| 2026-04-30 20:35 | -8.62963 | 18.95566 | 36001 ft | 479 kts | 343° |
| 2026-04-30 20:36 | -8.56584 | 18.93651 | 35997 ft | 479 kts | 343° |
| 2026-04-30 20:37 | -8.47005 | 18.90782 | 36002 ft | 479 kts | 343° |
| 2026-04-30 20:37 | -8.40601 | 18.88866 | 36000 ft | 479 kts | 343° |
| 2026-04-30 20:38 | -8.34223 | 18.86959 | 36001 ft | 479 kts | 343° |
| 2026-04-30 20:38 | -8.27816 | 18.85023 | 35999 ft | 479 kts | 343° |
| 2026-04-30 20:39 | -8.18263 | 18.82091 | 35997 ft | 479 kts | 343° |
| 2026-04-30 20:40 | -8.08703 | 18.79152 | 35999 ft | 479 kts | 343° |
| 2026-04-30 20:40 | -8.02330 | 18.77212 | 36000 ft | 479 kts | 343° |
| 2026-04-30 20:41 | -7.92752 | 18.74308 | 36000 ft | 478 kts | 343° |
| 2026-04-30 20:41 | -7.86384 | 18.72372 | 35998 ft | 478 kts | 343° |
| 2026-04-30 20:42 | -7.80014 | 18.70432 | 35998 ft | 478 kts | 343° |
| 2026-04-30 20:43 | -7.70490 | 18.67531 | 35996 ft | 478 kts | 343° |
| 2026-04-30 20:43 | -7.64088 | 18.65582 | 35999 ft | 478 kts | 343° |
| 2026-04-30 20:44 | -7.54567 | 18.62684 | 35999 ft | 478 kts | 343° |
| 2026-04-30 20:45 | -7.41782 | 18.58795 | 35996 ft | 478 kts | 343° |
| 2026-04-30 20:45 | -7.35454 | 18.56871 | 36001 ft | 478 kts | 343° |
| 2026-04-30 20:46 | -7.22671 | 18.52986 | 35999 ft | 478 kts | 343° |
| 2026-04-30 20:47 | -7.13145 | 18.50149 | 36001 ft | 478 kts | 344° |
| 2026-04-30 20:48 | -7.03493 | 18.47480 | 36001 ft | 477 kts | 344° |
| 2026-04-30 20:48 | -6.97135 | 18.45712 | 36001 ft | 477 kts | 344° |
| 2026-04-30 20:49 | -6.90733 | 18.43918 | 35999 ft | 478 kts | 344° |
| 2026-04-30 20:50 | -6.81114 | 18.41217 | 36000 ft | 478 kts | 344° |
| 2026-04-30 20:50 | -6.75043 | 18.39513 | 36001 ft | 478 kts | 344° |
| 2026-04-30 20:51 | -6.68635 | 18.37714 | 36000 ft | 478 kts | 344° |
| 2026-04-30 20:51 | -6.59041 | 18.35012 | 36000 ft | 477 kts | 344° |
| 2026-04-30 20:52 | -6.52644 | 18.33217 | 36003 ft | 477 kts | 344° |
| 2026-04-30 20:53 | -6.43047 | 18.30528 | 36001 ft | 477 kts | 344° |
| 2026-04-30 20:53 | -6.36656 | 18.28715 | 36001 ft | 477 kts | 343° |
| 2026-04-30 20:54 | -6.27070 | 18.25979 | 36000 ft | 477 kts | 343° |
| 2026-04-30 20:55 | -6.17495 | 18.23258 | 36000 ft | 477 kts | 344° |
| 2026-04-30 20:55 | -6.11159 | 18.21512 | 36000 ft | 477 kts | 344° |
| 2026-04-30 20:56 | -6.01514 | 18.18878 | 36000 ft | 477 kts | 344° |
| 2026-04-30 20:57 | -5.91980 | 18.16256 | 36001 ft | 476 kts | 344° |
| 2026-04-30 20:57 | -5.85589 | 18.14495 | 36000 ft | 476 kts | 344° |
| 2026-04-30 20:58 | -5.75990 | 18.11849 | 36001 ft | 476 kts | 344° |
| 2026-04-30 20:58 | -5.69757 | 18.10123 | 36000 ft | 476 kts | 344° |
| 2026-04-30 20:59 | -5.62024 | 18.07991 | 35999 ft | 477 kts | 344° |
| 2026-04-30 21:00 | -5.52447 | 18.05369 | 35999 ft | 476 kts | 344° |
| 2026-04-30 21:01 | -5.45512 | 18.03443 | 36000 ft | 476 kts | 343° |
| 2026-04-30 21:02 | -5.39821 | 18.01852 | 36001 ft | 476 kts | 344° |
| 2026-04-30 21:02 | -5.36300 | 18.00868 | 36001 ft | 476 kts | 343° |
| 2026-04-30 21:03 | -5.32398 | 17.99750 | 36001 ft | 476 kts | 343° |
| 2026-04-30 21:03 | -5.26131 | 17.97949 | 36000 ft | 476 kts | 343° |
| 2026-04-30 21:04 | -5.21438 | 17.96608 | 36001 ft | 475 kts | 343° |
| 2026-04-30 21:04 | -5.15048 | 17.94794 | 35847 ft | 478 kts | 343° |
| 2026-04-30 21:05 | -5.10014 | 17.93366 | 35578 ft | 474 kts | 344° |
| 2026-04-30 21:05 | -5.06516 | 17.92380 | 35727 ft | 469 kts | 344° |
| 2026-04-30 21:06 | -5.02995 | 17.91388 | 35954 ft | 468 kts | 344° |
| 2026-04-30 21:06 | -4.99672 | 17.90446 | 36004 ft | 470 kts | 344° |
| 2026-04-30 21:07 | -4.95115 | 17.89149 | 36006 ft | 475 kts | 344° |
| 2026-04-30 21:07 | -4.91477 | 17.88110 | 36003 ft | 478 kts | 343° |
| 2026-04-30 21:08 | -4.87838 | 17.87067 | 36001 ft | 479 kts | 343° |
| 2026-04-30 21:08 | -4.84683 | 17.86163 | 36001 ft | 478 kts | 343° |
| 2026-04-30 21:09 | -4.80178 | 17.84903 | 36000 ft | 476 kts | 344° |
| 2026-04-30 21:09 | -4.76103 | 17.83766 | 35999 ft | 474 kts | 344° |
| 2026-04-30 21:10 | -4.70933 | 17.82316 | 36001 ft | 473 kts | 344° |
| 2026-04-30 21:10 | -4.66795 | 17.81153 | 36002 ft | 473 kts | 344° |
| 2026-04-30 21:11 | -4.62723 | 17.80011 | 35999 ft | 474 kts | 344° |
| 2026-04-30 21:11 | -4.58852 | 17.78926 | 35999 ft | 474 kts | 344° |
| 2026-04-30 21:12 | -4.53452 | 17.77419 | 36001 ft | 474 kts | 344° |
| 2026-04-30 21:12 | -4.49383 | 17.76284 | 35996 ft | 474 kts | 344° |
| 2026-04-30 21:13 | -4.45732 | 17.75265 | 36001 ft | 474 kts | 344° |
| 2026-04-30 21:13 | -4.41693 | 17.74135 | 36001 ft | 474 kts | 344° |
| 2026-04-30 21:14 | -4.36691 | 17.72734 | 35995 ft | 474 kts | 344° |
| 2026-04-30 21:14 | -4.32750 | 17.71631 | 36002 ft | 473 kts | 344° |
| 2026-04-30 21:15 | -4.28804 | 17.70526 | 35999 ft | 474 kts | 344° |
| 2026-04-30 21:15 | -4.23951 | 17.69165 | 36002 ft | 474 kts | 344° |
| 2026-04-30 21:16 | -4.19907 | 17.68030 | 36000 ft | 474 kts | 344° |
| 2026-04-30 21:16 | -4.15690 | 17.66846 | 36000 ft | 474 kts | 343° |
| 2026-04-30 21:17 | -4.11895 | 17.65777 | 36000 ft | 474 kts | 344° |
| 2026-04-30 21:17 | -4.06809 | 17.64353 | 35999 ft | 474 kts | 344° |
| 2026-04-30 21:18 | -4.02590 | 17.63171 | 35996 ft | 474 kts | 343° |
| 2026-04-30 21:18 | -3.98729 | 17.62067 | 36000 ft | 473 kts | 343° |
| 2026-04-30 21:19 | -3.94684 | 17.60910 | 35997 ft | 474 kts | 344° |
| 2026-04-30 21:19 | -3.90689 | 17.59795 | 36002 ft | 474 kts | 344° |
| 2026-04-30 21:20 | -3.86074 | 17.58514 | 35999 ft | 473 kts | 344° |
| 2026-04-30 21:20 | -3.82093 | 17.57400 | 35999 ft | 473 kts | 343° |
| 2026-04-30 21:21 | -3.78209 | 17.56303 | 36001 ft | 473 kts | 344° |
| 2026-04-30 21:22 | -3.72349 | 17.54649 | 36001 ft | 473 kts | 344° |
| 2026-04-30 21:23 | -3.64144 | 17.52357 | 36001 ft | 473 kts | 344° |
| 2026-04-30 21:23 | -3.57994 | 17.50634 | 35999 ft | 473 kts | 344° |
| 2026-04-30 21:24 | -3.53585 | 17.49395 | 35999 ft | 473 kts | 344° |
| 2026-04-30 21:24 | -3.49810 | 17.48334 | 36000 ft | 473 kts | 344° |
| 2026-04-30 21:25 | -3.43127 | 17.46456 | 36001 ft | 473 kts | 344° |
| 2026-04-30 21:26 | -3.35800 | 17.44404 | 36000 ft | 473 kts | 344° |
| 2026-04-30 21:27 | -3.28346 | 17.42317 | 36000 ft | 473 kts | 344° |
| 2026-04-30 21:27 | -3.24410 | 17.41215 | 36000 ft | 473 kts | 344° |
| 2026-04-30 21:28 | -3.17348 | 17.39240 | 36000 ft | 473 kts | 344° |
| 2026-04-30 21:29 | -3.10895 | 17.37436 | 35998 ft | 473 kts | 344° |
| 2026-04-30 21:30 | -3.00632 | 17.34567 | 36002 ft | 473 kts | 344° |
| 2026-04-30 21:31 | -2.90390 | 17.31705 | 36001 ft | 473 kts | 344° |
| 2026-04-30 21:32 | -2.83747 | 17.29848 | 36001 ft | 473 kts | 344° |
| 2026-04-30 21:32 | -2.79012 | 17.28525 | 36000 ft | 473 kts | 344° |
| 2026-04-30 21:33 | -2.73034 | 17.26854 | 36001 ft | 473 kts | 344° |
| 2026-04-30 21:34 | -2.68332 | 17.25541 | 36001 ft | 473 kts | 344° |
| 2026-04-30 21:34 | -2.61929 | 17.23752 | 36001 ft | 473 kts | 344° |
| 2026-04-30 21:35 | -2.58041 | 17.22666 | 36000 ft | 473 kts | 344° |
| 2026-04-30 21:35 | -2.53317 | 17.21347 | 36002 ft | 473 kts | 344° |
| 2026-04-30 21:36 | -2.49168 | 17.20187 | 36001 ft | 473 kts | 344° |
| 2026-04-30 21:37 | -2.40222 | 17.17690 | 36002 ft | 473 kts | 344° |
| 2026-04-30 21:37 | -2.37416 | 17.16906 | 36000 ft | 473 kts | 344° |
| 2026-04-30 21:38 | -2.34221 | 17.16014 | 35998 ft | 473 kts | 344° |
| 2026-04-30 21:38 | -2.27907 | 17.14251 | 36002 ft | 473 kts | 344° |
| 2026-04-30 21:39 | -2.23621 | 17.13054 | 35998 ft | 473 kts | 344° |
| 2026-04-30 21:39 | -2.18542 | 17.11636 | 36001 ft | 473 kts | 344° |
| 2026-04-30 21:40 | -2.15081 | 17.10670 | 35998 ft | 473 kts | 344° |
| 2026-04-30 21:40 | -2.13169 | 17.10136 | 35998 ft | 473 kts | 344° |
| 2026-04-30 21:41 | -2.08521 | 17.08839 | 36000 ft | 473 kts | 344° |
| 2026-04-30 21:41 | -2.02451 | 17.07145 | 36002 ft | 473 kts | 344° |
| 2026-04-30 21:42 | -2.00005 | 17.06462 | 36001 ft | 473 kts | 344° |
| 2026-04-30 21:42 | -1.97051 | 17.05638 | 36000 ft | 473 kts | 344° |
| 2026-04-30 21:43 | -1.95345 | 17.05161 | 36000 ft | 473 kts | 344° |
| 2026-04-30 21:43 | -1.90160 | 17.03715 | 35999 ft | 473 kts | 344° |
| 2026-04-30 21:44 | -1.85770 | 17.02489 | 36002 ft | 473 kts | 344° |
| 2026-04-30 21:44 | -1.80015 | 17.00905 | 36001 ft | 473 kts | 344° |
| 2026-04-30 21:45 | -1.73776 | 16.99192 | 35999 ft | 473 kts | 344° |
| 2026-04-30 21:45 | -1.67685 | 16.97516 | 36000 ft | 473 kts | 344° |
| 2026-04-30 21:46 | -1.61340 | 16.95767 | 35999 ft | 473 kts | 344° |
| 2026-04-30 21:46 | -1.55721 | 16.94217 | 36000 ft | 473 kts | 344° |
| 2026-04-30 21:47 | -1.49325 | 16.92453 | 35999 ft | 473 kts | 344° |
| 2026-04-30 21:47 | -1.42984 | 16.90705 | 35996 ft | 473 kts | 344° |
| 2026-04-30 21:48 | -1.36627 | 16.88953 | 35997 ft | 473 kts | 344° |
| 2026-04-30 21:48 | -1.30291 | 16.87206 | 36001 ft | 473 kts | 344° |
| 2026-04-30 21:49 | -1.23939 | 16.85455 | 36000 ft | 473 kts | 344° |
| 2026-04-30 21:49 | -1.17611 | 16.83705 | 35999 ft | 473 kts | 344° |
| 2026-04-30 21:50 | -1.11273 | 16.81928 | 36001 ft | 473 kts | 344° |
| 2026-04-30 21:50 | -1.04944 | 16.80150 | 36002 ft | 473 kts | 344° |
| 2026-04-30 21:51 | -0.98603 | 16.78374 | 36002 ft | 473 kts | 344° |
| 2026-04-30 21:51 | -0.92263 | 16.76600 | 36000 ft | 473 kts | 344° |
| 2026-04-30 21:52 | -0.85972 | 16.74840 | 36001 ft | 473 kts | 344° |
| 2026-04-30 21:52 | -0.79630 | 16.73065 | 36002 ft | 473 kts | 344° |
| 2026-04-30 21:53 | -0.73297 | 16.71293 | 36002 ft | 473 kts | 344° |
| 2026-04-30 21:53 | -0.66967 | 16.69522 | 36001 ft | 473 kts | 344° |
| 2026-04-30 21:54 | -0.60620 | 16.67746 | 36002 ft | 473 kts | 344° |
| 2026-04-30 21:54 | -0.54289 | 16.65975 | 36001 ft | 473 kts | 344° |
| 2026-04-30 21:55 | -0.47950 | 16.64188 | 36001 ft | 473 kts | 344° |
| 2026-04-30 21:55 | -0.41618 | 16.62403 | 36002 ft | 473 kts | 344° |
| 2026-04-30 21:56 | -0.35284 | 16.60618 | 36001 ft | 473 kts | 344° |
| 2026-04-30 21:56 | -0.28959 | 16.58836 | 36001 ft | 473 kts | 344° |
| 2026-04-30 21:57 | -0.22626 | 16.57049 | 36001 ft | 473 kts | 344° |
| 2026-04-30 21:57 | -0.16287 | 16.55256 | 36002 ft | 473 kts | 344° |
| 2026-04-30 21:58 | -0.09951 | 16.53467 | 36002 ft | 473 kts | 343° |
| 2026-04-30 21:58 | -0.03619 | 16.51675 | 36002 ft | 473 kts | 343° |
| 2026-04-30 21:59 | 0.02712 | 16.49885 | 36001 ft | 473 kts | 344° |
| 2026-04-30 22:00 | 0.12223 | 16.47227 | 35998 ft | 473 kts | 344° |
| 2026-04-30 22:00 | 0.21677 | 16.44570 | 35996 ft | 473 kts | 344° |
| 2026-04-30 22:01 | 0.28059 | 16.42772 | 36002 ft | 473 kts | 344° |
| 2026-04-30 22:01 | 0.34387 | 16.40988 | 36002 ft | 473 kts | 344° |
| 2026-04-30 22:02 | 0.40683 | 16.39214 | 36001 ft | 473 kts | 344° |
| 2026-04-30 22:02 | 0.47031 | 16.37425 | 36000 ft | 473 kts | 344° |
| 2026-04-30 22:03 | 0.53366 | 16.35640 | 36000 ft | 473 kts | 344° |
| 2026-04-30 22:03 | 0.59704 | 16.33855 | 36002 ft | 473 kts | 344° |
| 2026-04-30 22:04 | 0.66027 | 16.32073 | 36001 ft | 473 kts | 344° |
| 2026-04-30 22:05 | 0.75529 | 16.29395 | 36002 ft | 473 kts | 344° |
| 2026-04-30 22:05 | 0.80805 | 16.27908 | 35997 ft | 473 kts | 344° |
| 2026-04-30 22:06 | 0.88204 | 16.25823 | 35999 ft | 473 kts | 344° |
| 2026-04-30 22:06 | 0.97681 | 16.23157 | 36001 ft | 473 kts | 344° |
| 2026-04-30 22:07 | 1.02986 | 16.21661 | 36000 ft | 473 kts | 344° |
| 2026-04-30 22:07 | 1.09325 | 16.19871 | 36002 ft | 474 kts | 344° |
| 2026-04-30 22:08 | 1.15678 | 16.18079 | 36002 ft | 474 kts | 344° |
| 2026-04-30 22:08 | 1.22013 | 16.16293 | 35999 ft | 473 kts | 344° |
| 2026-04-30 22:09 | 1.28348 | 16.14508 | 35999 ft | 473 kts | 344° |
| 2026-04-30 22:09 | 1.34694 | 16.12719 | 36001 ft | 473 kts | 344° |
| 2026-04-30 22:10 | 1.41028 | 16.10933 | 35999 ft | 473 kts | 344° |
| 2026-04-30 22:10 | 1.47372 | 16.09144 | 36001 ft | 473 kts | 344° |
| 2026-04-30 22:11 | 1.56882 | 16.06463 | 36002 ft | 473 kts | 344° |
| 2026-04-30 22:12 | 1.63217 | 16.04676 | 36000 ft | 473 kts | 344° |
| 2026-04-30 22:12 | 1.69517 | 16.02900 | 36002 ft | 473 kts | 344° |
| 2026-04-30 22:13 | 1.75882 | 16.01105 | 36002 ft | 473 kts | 344° |
| 2026-04-30 22:13 | 1.82226 | 15.99315 | 36000 ft | 473 kts | 344° |
| 2026-04-30 22:14 | 1.88524 | 15.97539 | 36002 ft | 474 kts | 344° |
| 2026-04-30 22:14 | 1.94910 | 15.95738 | 36000 ft | 474 kts | 344° |
| 2026-04-30 22:15 | 2.01262 | 15.93946 | 35996 ft | 474 kts | 344° |
| 2026-04-30 22:15 | 2.07595 | 15.92159 | 36000 ft | 474 kts | 344° |
| 2026-04-30 22:16 | 2.13901 | 15.90380 | 36002 ft | 474 kts | 344° |
| 2026-04-30 22:17 | 2.26594 | 15.86798 | 36000 ft | 474 kts | 344° |
| 2026-04-30 22:17 | 2.36130 | 15.84106 | 35996 ft | 475 kts | 344° |
| 2026-04-30 22:18 | 2.45653 | 15.81418 | 36001 ft | 474 kts | 344° |
| 2026-04-30 22:19 | 2.55172 | 15.78731 | 36000 ft | 474 kts | 344° |
| 2026-04-30 22:20 | 2.64689 | 15.76044 | 36001 ft | 474 kts | 344° |
| 2026-04-30 22:20 | 2.74206 | 15.73356 | 35998 ft | 475 kts | 344° |
| 2026-04-30 22:21 | 2.80574 | 15.71557 | 36001 ft | 474 kts | 344° |
| 2026-04-30 22:21 | 2.86873 | 15.69793 | 36002 ft | 474 kts | 344° |
| 2026-04-30 22:22 | 2.93290 | 15.68000 | 36001 ft | 475 kts | 344° |
| 2026-04-30 22:22 | 2.98144 | 15.66643 | 36001 ft | 475 kts | 344° |
| 2026-04-30 22:23 | 3.03174 | 15.65236 | 36001 ft | 475 kts | 344° |
| 2026-04-30 22:23 | 3.08559 | 15.63730 | 35999 ft | 475 kts | 344° |
| 2026-04-30 22:24 | 3.14573 | 15.62048 | 36000 ft | 475 kts | 344° |
| 2026-04-30 22:24 | 3.20479 | 15.60395 | 36000 ft | 475 kts | 344° |
| 2026-04-30 22:25 | 3.25410 | 15.59015 | 35998 ft | 475 kts | 344° |
| 2026-04-30 22:25 | 3.30538 | 15.57580 | 36001 ft | 475 kts | 344° |
| 2026-04-30 22:26 | 3.37367 | 15.55668 | 35999 ft | 475 kts | 344° |
| 2026-04-30 22:27 | 3.41655 | 15.54467 | 36000 ft | 476 kts | 344° |
| 2026-04-30 22:27 | 3.51144 | 15.51798 | 36000 ft | 475 kts | 344° |
| 2026-04-30 22:28 | 3.60731 | 15.49107 | 35998 ft | 475 kts | 344° |
| 2026-04-30 22:29 | 3.73430 | 15.45543 | 36001 ft | 475 kts | 343° |
| 2026-04-30 22:31 | 3.95672 | 15.39296 | 36000 ft | 475 kts | 344° |
| 2026-04-30 22:32 | 4.08782 | 15.35667 | 35999 ft | 474 kts | 344° |
| 2026-04-30 22:33 | 4.18951 | 15.32815 | 36003 ft | 475 kts | 344° |
| 2026-04-30 22:35 | 4.33931 | 15.28577 | 36001 ft | 475 kts | 344° |
| 2026-04-30 22:36 | 4.49837 | 15.24078 | 35996 ft | 475 kts | 344° |
| 2026-04-30 22:37 | 4.62553 | 15.20484 | 35998 ft | 475 kts | 344° |
| 2026-04-30 22:38 | 4.75279 | 15.16884 | 36001 ft | 475 kts | 344° |
| 2026-04-30 22:39 | 4.84825 | 15.14182 | 36002 ft | 475 kts | 344° |
| 2026-04-30 22:40 | 5.03882 | 15.08790 | 36000 ft | 476 kts | 344° |
| 2026-04-30 22:41 | 5.19803 | 15.04276 | 35999 ft | 476 kts | 344° |
| 2026-04-30 22:43 | 5.38917 | 14.98859 | 35999 ft | 476 kts | 344° |
| 2026-04-30 22:44 | 5.51662 | 14.95244 | 36002 ft | 476 kts | 344° |
| 2026-04-30 22:45 | 5.70805 | 14.89812 | 36001 ft | 477 kts | 344° |
| 2026-04-30 22:47 | 5.89990 | 14.84364 | 36002 ft | 477 kts | 344° |
| 2026-04-30 22:48 | 6.02781 | 14.80730 | 36000 ft | 478 kts | 344° |
| 2026-04-30 22:49 | 6.21943 | 14.75282 | 36002 ft | 478 kts | 344° |
| 2026-04-30 22:51 | 6.41147 | 14.69819 | 35998 ft | 478 kts | 344° |
| 2026-04-30 22:52 | 6.50737 | 14.67090 | 36000 ft | 477 kts | 344° |
| 2026-04-30 22:52 | 6.56098 | 14.65564 | 36107 ft | 477 kts | 344° |
| 2026-04-30 22:53 | 6.62473 | 14.63748 | 36436 ft | 476 kts | 344° |
| 2026-04-30 22:53 | 6.68845 | 14.61932 | 36699 ft | 476 kts | 344° |
| 2026-04-30 22:53 | 6.72038 | 14.61022 | 36816 ft | 477 kts | 344° |
| 2026-04-30 22:54 | 6.78423 | 14.59202 | 37065 ft | 477 kts | 344° |
| 2026-04-30 22:55 | 6.87998 | 14.56471 | 37479 ft | 476 kts | 344° |
| 2026-04-30 22:55 | 6.94367 | 14.54655 | 37729 ft | 476 kts | 344° |
| 2026-04-30 22:56 | 7.00694 | 14.52849 | 37938 ft | 476 kts | 344° |
| 2026-04-30 22:57 | 7.16695 | 14.48282 | 38000 ft | 478 kts | 344° |
| 2026-04-30 22:58 | 7.29483 | 14.44634 | 38000 ft | 478 kts | 344° |
| 2026-04-30 22:59 | 7.48599 | 14.39165 | 37998 ft | 475 kts | 344° |